createdAt,value
2018-12-01T00:00:27.487Z,4.88
2018-12-01T00:03:31.717Z,4.81
2018-12-01T00:06:35.992Z,4.78
2018-12-01T00:09:40.318Z,4.86
2018-12-01T00:12:44.617Z,4.87
2018-12-01T00:15:48.856Z,4.87
2018-12-01T00:18:53.133Z,4.78
2018-12-01T00:21:57.377Z,4.76
2018-12-01T00:25:01.674Z,4.90
2018-12-01T00:28:06.131Z,4.79
2018-12-01T00:31:10.384Z,4.81
2018-12-01T00:34:14.637Z,4.93
2018-12-01T00:37:18.885Z,4.86
2018-12-01T00:40:23.270Z,4.77
2018-12-01T00:43:27.980Z,4.79
2018-12-01T00:46:31.781Z,4.75
2018-12-01T00:49:36.085Z,4.70
2018-12-01T00:52:41.038Z,4.79
2018-12-01T00:55:45.297Z,4.83
2018-12-01T00:58:49.549Z,4.85
2018-12-01T01:01:53.866Z,4.87
2018-12-01T01:04:58.181Z,4.89
2018-12-01T01:08:02.553Z,4.88
2018-12-01T01:11:06.789Z,4.92
2018-12-01T01:14:11.021Z,4.88
2018-12-01T01:17:15.267Z,4.91
2018-12-01T01:20:22.304Z,5.03
2018-12-01T01:23:26.569Z,5.01
2018-12-01T01:26:30.858Z,5.05
2018-12-01T01:29:35.201Z,5.02
2018-12-01T01:32:39.584Z,5.08
2018-12-01T01:35:43.881Z,5.09
2018-12-01T01:38:48.166Z,5.06
2018-12-01T01:41:52.450Z,5.07
2018-12-01T01:44:56.718Z,5.05
2018-12-01T01:48:00.957Z,5.11
2018-12-01T01:51:05.400Z,5.17
2018-12-01T01:54:09.645Z,5.10
2018-12-01T01:57:14.089Z,5.09
2018-12-01T02:00:19.849Z,5.20
2018-12-01T02:03:24.097Z,5.07
2018-12-01T02:06:28.409Z,5.11
2018-12-01T02:09:32.709Z,5.17
2018-12-01T02:12:36.981Z,5.08
2018-12-01T02:15:41.225Z,5.08
2018-12-01T02:18:45.473Z,5.20
2018-12-01T02:21:49.783Z,5.18
2018-12-01T02:24:54.018Z,5.06
2018-12-01T02:27:58.254Z,5.03
2018-12-01T02:31:02.557Z,5.15
2018-12-01T02:34:06.841Z,5.13
2018-12-01T02:37:11.073Z,5.26
2018-12-01T02:40:15.431Z,5.19
2018-12-01T02:43:19.672Z,5.18
2018-12-01T02:46:41.065Z,5.06
2018-12-01T02:49:45.302Z,5.18
2018-12-01T02:52:49.605Z,5.15
2018-12-01T02:55:53.862Z,5.09
2018-12-01T02:58:58.117Z,5.14
2018-12-01T03:02:02.369Z,5.05
2018-12-01T03:05:09.904Z,5.05
2018-12-01T03:08:14.183Z,5.05
2018-12-01T03:11:18.520Z,5.04
2018-12-01T03:14:22.790Z,5.01
2018-12-01T03:17:27.061Z,4.93
2018-12-01T03:20:31.324Z,4.96
2018-12-01T03:23:35.597Z,5.00
2018-12-01T03:26:39.881Z,4.94
2018-12-01T03:29:44.253Z,5.03
2018-12-01T03:32:49.600Z,5.09
2018-12-01T03:35:53.898Z,5.05
2018-12-01T03:38:58.153Z,5.11
2018-12-01T03:42:02.460Z,5.07
2018-12-01T03:45:09.001Z,5.04
2018-12-01T03:48:13.261Z,5.01
2018-12-01T03:51:17.569Z,5.01
2018-12-01T03:54:21.836Z,4.99
2018-12-01T03:57:26.088Z,4.99
2018-12-01T04:00:31.175Z,5.00
2018-12-01T04:03:35.449Z,4.94
2018-12-01T04:06:39.785Z,4.98
2018-12-01T04:09:44.023Z,4.98
2018-12-01T04:12:48.280Z,4.96
2018-12-01T04:15:52.604Z,4.96
2018-12-01T04:18:56.829Z,4.75
2018-12-01T04:22:01.158Z,4.67
2018-12-01T04:25:05.973Z,4.63
2018-12-01T04:28:10.216Z,4.62
2018-12-01T04:31:14.488Z,4.48
2018-12-01T04:34:22.204Z,4.47
2018-12-01T04:37:27.201Z,4.46
2018-12-01T04:40:31.506Z,4.46
2018-12-01T04:43:35.813Z,4.49
2018-12-01T04:46:40.189Z,4.47
2018-12-01T04:49:44.641Z,4.60
2018-12-01T04:52:49.775Z,4.68
2018-12-01T04:55:54.074Z,4.63
2018-12-01T04:58:58.665Z,4.53
2018-12-01T05:02:02.944Z,4.40
2018-12-01T05:05:12.894Z,4.26
2018-12-01T05:08:17.319Z,4.42
2018-12-01T05:11:21.632Z,4.35
2018-12-01T05:14:25.961Z,4.35
2018-12-01T05:17:30.408Z,4.35
2018-12-01T05:20:34.706Z,4.47
2018-12-01T05:23:39.119Z,4.48
2018-12-01T05:26:43.421Z,4.55
2018-12-01T05:29:47.918Z,4.56
2018-12-01T05:32:52.308Z,4.57
2018-12-01T05:35:56.631Z,4.62
2018-12-01T05:39:01.010Z,4.71
2018-12-01T05:42:06.509Z,4.74
2018-12-01T05:45:17.439Z,4.73
2018-12-01T05:48:21.907Z,4.71
2018-12-01T05:51:26.249Z,4.84
2018-12-01T05:54:30.757Z,4.99
2018-12-01T05:57:35.633Z,5.02
2018-12-01T06:00:39.930Z,4.82
2018-12-01T06:03:44.601Z,4.73
2018-12-01T06:06:49.042Z,4.81
2018-12-01T06:09:53.329Z,4.84
2018-12-01T06:13:01.278Z,4.88
2018-12-01T06:16:05.916Z,5.03
2018-12-01T06:19:11.413Z,5.06
2018-12-01T06:22:15.801Z,4.94
2018-12-01T06:25:24.005Z,4.93
2018-12-01T06:28:28.402Z,4.90
2018-12-01T06:31:32.745Z,4.93
2018-12-01T06:34:38.206Z,4.98
2018-12-01T06:37:42.679Z,5.01
2018-12-01T06:40:46.961Z,4.99
2018-12-01T06:43:52.046Z,5.00
2018-12-01T06:46:56.573Z,5.00
2018-12-01T06:50:01.778Z,5.00
2018-12-01T06:53:06.533Z,4.99
2018-12-01T06:56:11.425Z,5.08
2018-12-01T06:59:15.825Z,5.07
2018-12-01T07:02:20.229Z,5.08
2018-12-01T07:05:24.733Z,5.15
2018-12-01T07:08:29.496Z,5.08
2018-12-01T07:11:33.846Z,5.09
2018-12-01T07:14:38.153Z,5.25
2018-12-01T07:17:42.418Z,5.18
2018-12-01T07:20:47.365Z,5.28
2018-12-01T07:23:51.677Z,5.34
2018-12-01T07:26:56.166Z,5.36
2018-12-01T07:30:00.755Z,5.40
2018-12-01T07:33:05.148Z,5.49
2018-12-01T07:36:09.454Z,5.48
2018-12-01T07:39:15.941Z,5.53
2018-12-01T07:42:20.275Z,5.50
2018-12-01T07:45:24.561Z,5.59
2018-12-01T07:48:29.153Z,5.62
2018-12-01T07:51:33.451Z,5.73
2018-12-01T07:54:37.735Z,5.78
2018-12-01T07:57:42.207Z,5.87
2018-12-01T08:00:47.668Z,6.01
2018-12-01T08:03:51.933Z,6.08
2018-12-01T08:06:56.254Z,6.20
2018-12-01T08:10:01.377Z,6.32
2018-12-01T08:13:05.820Z,6.39
2018-12-01T08:16:10.124Z,6.47
2018-12-01T08:19:14.709Z,6.62
2018-12-01T08:22:19.033Z,6.91
2018-12-01T08:25:23.354Z,7.27
2018-12-01T08:28:27.641Z,7.50
2018-12-01T08:31:31.997Z,7.52
2018-12-01T08:35:07.993Z,7.62
2018-12-01T08:38:12.842Z,7.75
2018-12-01T08:41:17.164Z,7.84
2018-12-01T08:44:21.445Z,7.90
2018-12-01T08:47:25.715Z,7.77
2018-12-01T08:50:30.131Z,7.69
2018-12-01T08:53:34.456Z,7.81
2018-12-01T08:56:38.931Z,7.84
2018-12-01T08:59:43.285Z,7.69
2018-12-01T09:02:49.683Z,7.54
2018-12-01T09:05:54.526Z,7.45
2018-12-01T09:08:58.801Z,7.37
2018-12-01T09:12:04.163Z,7.53
2018-12-01T09:15:11.492Z,7.76
2018-12-01T09:18:15.853Z,7.57
2018-12-01T09:21:20.145Z,7.44
2018-12-01T09:24:25.770Z,7.51
2018-12-01T09:27:30.142Z,7.79
2018-12-01T09:30:36.284Z,8.09
2018-12-01T09:33:40.621Z,8.26
2018-12-01T09:36:45.110Z,8.34
2018-12-01T09:44:09.500Z,8.35
2018-12-01T09:47:15.065Z,8.34
2018-12-01T09:50:19.403Z,8.35
2018-12-01T09:53:23.997Z,8.32
2018-12-01T09:56:28.474Z,8.38
2018-12-01T09:59:34.498Z,8.47
2018-12-01T10:02:39.059Z,8.59
2018-12-01T10:05:43.430Z,8.68
2018-12-01T10:08:47.947Z,8.57
2018-12-01T10:11:52.294Z,8.30
2018-12-01T10:14:56.595Z,8.15
2018-12-01T10:18:01.141Z,8.06
2018-12-01T10:21:05.481Z,7.86
2018-12-01T10:24:09.762Z,7.94
2018-12-01T10:27:14.098Z,8.04
2018-12-01T10:30:21.171Z,7.93
2018-12-01T10:33:25.757Z,7.97
2018-12-01T10:36:30.129Z,8.00
2018-12-01T10:39:34.485Z,8.02
2018-12-01T10:42:39.489Z,7.95
2018-12-01T10:45:44.221Z,7.93
2018-12-01T10:48:48.859Z,7.96
2018-12-01T10:51:54.264Z,8.12
2018-12-01T10:54:58.869Z,8.19
2018-12-01T10:58:17.885Z,8.24
2018-12-01T11:01:29.126Z,8.37
2018-12-01T11:04:39.164Z,8.37
2018-12-01T11:07:43.741Z,8.41
2018-12-01T11:10:55.044Z,8.49
2018-12-01T11:13:54.230Z,8.53
2018-12-01T11:16:58.814Z,8.59
2018-12-01T11:20:03.483Z,8.76
2018-12-01T11:23:07.997Z,8.84
2018-12-01T11:26:12.279Z,8.89
2018-12-01T11:29:16.631Z,8.93
2018-12-01T11:32:21.146Z,9.14
2018-12-01T11:35:25.481Z,9.38
2018-12-01T11:38:29.802Z,9.60
2018-12-01T11:41:34.097Z,9.78
2018-12-01T11:44:38.560Z,9.99
2018-12-01T11:47:42.844Z,10.03
2018-12-01T11:50:47.529Z,9.86
2018-12-01T11:53:51.821Z,9.80
2018-12-01T11:56:56.226Z,9.74
2018-12-01T12:00:00.547Z,9.61
2018-12-01T12:03:05.533Z,9.51
2018-12-01T12:06:09.837Z,9.46
2018-12-01T12:09:14.510Z,9.58
2018-12-01T12:12:19.362Z,9.82
2018-12-01T12:15:24.807Z,9.76
2018-12-01T12:18:32.249Z,9.72
2018-12-01T12:21:36.651Z,9.70
2018-12-01T12:24:40.969Z,10.06
2018-12-01T12:27:45.381Z,10.01
2018-12-01T12:30:49.986Z,10.01
2018-12-01T12:33:54.394Z,9.83
2018-12-01T12:36:58.930Z,9.68
2018-12-01T12:40:03.204Z,9.52
2018-12-01T12:43:08.124Z,9.29
2018-12-01T12:46:14.102Z,9.20
2018-12-01T12:49:18.745Z,9.32
2018-12-01T12:52:23.210Z,9.50
2018-12-01T12:55:28.496Z,9.43
2018-12-01T12:58:33.873Z,9.34
2018-12-01T13:01:38.445Z,9.18
2018-12-01T13:04:45.207Z,9.28
2018-12-01T13:07:49.830Z,9.22
2018-12-01T13:10:54.361Z,9.17
2018-12-01T13:13:59.648Z,9.13
2018-12-01T13:17:03.946Z,9.41
2018-12-01T13:20:18.066Z,9.65
2018-12-01T13:23:22.435Z,10.13
2018-12-01T13:26:26.924Z,10.41
2018-12-01T13:29:31.486Z,10.51
2018-12-01T13:32:41.409Z,10.40
2018-12-01T13:35:46.068Z,10.35
2018-12-01T13:38:50.552Z,10.08
2018-12-01T13:41:54.995Z,9.83
2018-12-01T13:44:59.665Z,9.66
2018-12-01T13:48:04.082Z,9.49
2018-12-01T13:51:08.550Z,9.41
2018-12-01T13:54:13.012Z,9.28
2018-12-01T13:57:39.631Z,9.23
2018-12-01T14:00:43.994Z,9.19
2018-12-01T14:03:49.078Z,9.23
2018-12-01T14:06:53.365Z,9.07
2018-12-01T14:09:58.033Z,8.95
2018-12-01T14:13:06.485Z,8.80
2018-12-01T14:16:10.785Z,8.79
2018-12-01T14:19:15.331Z,8.72
2018-12-01T14:22:20.206Z,8.69
2018-12-01T14:25:24.690Z,8.57
2018-12-01T14:28:29.294Z,8.51
2018-12-01T14:31:33.674Z,8.35
2018-12-01T14:34:38.045Z,8.34
2018-12-01T14:37:42.837Z,8.24
2018-12-01T14:40:49.589Z,8.01
2018-12-01T14:43:54.042Z,7.73
2018-12-01T14:46:58.467Z,7.52
2018-12-01T14:50:03.009Z,7.34
2018-12-01T14:53:09.597Z,7.12
2018-12-01T14:56:13.946Z,6.96
2018-12-01T14:59:18.345Z,6.74
2018-12-01T15:02:22.745Z,6.63
2018-12-01T15:05:27.591Z,6.43
2018-12-01T15:08:31.908Z,6.54
2018-12-01T15:11:36.573Z,6.53
2018-12-01T15:14:41.427Z,6.33
2018-12-01T15:17:45.829Z,6.04
2018-12-01T15:20:50.036Z,5.83
2018-12-01T15:23:55.299Z,5.65
2018-12-01T15:27:00.441Z,5.46
2018-12-01T15:30:10.589Z,5.32
2018-12-01T15:33:16.932Z,5.22
2018-12-01T15:36:21.968Z,5.11
2018-12-01T15:39:29.222Z,5.02
2018-12-01T15:42:33.702Z,4.88
2018-12-01T15:45:38.829Z,4.84
2018-12-01T15:48:43.215Z,4.81
2018-12-01T15:51:47.765Z,4.85
2018-12-01T15:54:52.196Z,4.78
2018-12-01T15:57:56.765Z,4.76
2018-12-01T16:01:01.424Z,4.76
2018-12-01T16:04:07.052Z,4.76
2018-12-01T16:07:11.485Z,4.71
2018-12-01T16:10:20.016Z,4.64
2018-12-01T16:13:25.883Z,4.49
2018-12-01T16:16:30.462Z,4.32
2018-12-01T16:19:34.921Z,4.24
2018-12-01T16:22:39.272Z,4.22
2018-12-01T16:25:43.886Z,4.13
2018-12-01T16:28:48.408Z,4.15
2018-12-01T16:31:53.204Z,3.88
2018-12-01T16:34:57.629Z,3.74
2018-12-01T16:38:02.592Z,3.62
2018-12-01T16:41:15.917Z,3.55
2018-12-01T16:44:21.309Z,3.46
2018-12-01T16:47:26.622Z,3.40
2018-12-01T16:50:31.036Z,3.36
2018-12-01T16:53:35.894Z,3.35
2018-12-01T16:56:40.296Z,3.34
2018-12-01T16:59:44.869Z,3.29
2018-12-01T17:02:58.851Z,3.31
2018-12-01T17:06:09.950Z,3.32
2018-12-01T17:09:14.362Z,3.40
2018-12-01T17:12:18.965Z,3.43
2018-12-01T17:15:23.662Z,3.36
2018-12-01T17:18:28.176Z,3.22
2018-12-01T17:21:32.473Z,3.11
2018-12-01T17:24:36.881Z,3.04
2018-12-01T17:27:41.465Z,2.97
2018-12-01T17:30:45.784Z,2.88
2018-12-01T17:33:50.108Z,2.84
2018-12-01T17:36:54.614Z,2.83
2018-12-01T17:39:58.993Z,2.81
2018-12-01T17:43:05.302Z,2.87
2018-12-01T17:46:09.718Z,2.92
2018-12-01T17:49:14.245Z,2.99
2018-12-01T17:52:18.946Z,2.90
2018-12-01T17:55:24.902Z,2.86
2018-12-01T17:58:30.949Z,2.89
2018-12-01T18:01:35.231Z,2.90
2018-12-01T18:04:39.620Z,2.96
2018-12-01T18:07:44.278Z,2.98
2018-12-01T18:10:50.789Z,2.93
2018-12-01T18:13:55.682Z,2.76
2018-12-01T18:17:03.826Z,2.76
2018-12-01T18:20:16.051Z,2.74
2018-12-01T18:23:21.053Z,2.76
2018-12-01T18:26:25.508Z,2.63
2018-12-01T18:29:29.961Z,2.72
2018-12-01T18:35:41.947Z,2.63
2018-12-01T18:38:49.638Z,2.54
2018-12-01T18:41:54.123Z,2.54
2018-12-01T18:44:59.232Z,2.38
2018-12-01T18:48:05.256Z,2.28
2018-12-01T18:51:11.794Z,2.32
2018-12-01T18:54:17.358Z,2.42
2018-12-01T18:57:21.964Z,2.45
2018-12-01T19:00:36.613Z,2.37
2018-12-01T19:03:41.473Z,2.42
2018-12-01T19:06:45.993Z,2.22
2018-12-01T19:09:50.381Z,2.08
2018-12-01T19:12:55.311Z,2.03
2018-12-01T19:15:59.579Z,1.98
2018-12-01T19:19:03.967Z,2.05
2018-12-01T19:22:08.422Z,1.95
2018-12-01T19:25:16.620Z,1.96
2018-12-01T19:28:21.213Z,1.89
2018-12-01T19:31:25.580Z,1.82
2018-12-01T19:34:29.957Z,1.76
2018-12-01T19:37:34.583Z,1.81
2018-12-01T19:40:38.872Z,1.83
2018-12-01T19:43:43.340Z,1.66
2018-12-01T19:46:47.738Z,1.61
2018-12-01T19:49:52.047Z,1.47
2018-12-01T19:52:57.426Z,1.40
2018-12-01T19:56:01.782Z,1.38
2018-12-01T19:59:06.635Z,1.27
2018-12-01T20:02:11.125Z,1.35
2018-12-01T20:05:17.729Z,1.25
2018-12-01T20:08:23.394Z,1.23
2018-12-01T20:11:27.823Z,1.12
2018-12-01T20:14:32.192Z,1.11
2018-12-01T20:17:36.580Z,1.01
2018-12-01T20:20:40.928Z,1.02
2018-12-01T20:23:45.478Z,1.14
2018-12-01T20:26:49.944Z,1.20
2018-12-01T20:29:54.389Z,1.23
2018-12-01T20:32:58.783Z,1.37
2018-12-01T20:36:08.619Z,1.36
2018-12-01T20:39:46.170Z,1.34
2018-12-01T20:42:50.547Z,1.34
2018-12-01T20:45:54.890Z,1.16
2018-12-01T20:48:59.356Z,1.16
2018-12-01T20:52:03.671Z,1.06
2018-12-01T20:55:20.144Z,1.09
2018-12-01T20:58:27.812Z,1.15
2018-12-01T21:01:32.309Z,1.34
2018-12-01T21:04:36.757Z,1.25
2018-12-01T21:07:41.270Z,1.29
2018-12-01T21:10:50.604Z,1.40
2018-12-01T21:13:55.230Z,1.38
2018-12-01T21:16:59.621Z,1.35
2018-12-01T21:20:04.738Z,1.36
2018-12-01T21:23:09.359Z,1.31
2018-12-01T21:26:13.786Z,1.27
2018-12-01T21:29:19.168Z,1.21
2018-12-01T21:32:23.816Z,1.19
2018-12-01T21:35:28.181Z,1.33
2018-12-01T21:38:32.613Z,1.58
2018-12-01T21:41:36.997Z,1.36
2018-12-01T21:44:41.313Z,1.17
2018-12-01T21:47:45.841Z,1.25
2018-12-01T21:50:50.963Z,1.34
2018-12-01T21:53:55.384Z,1.44
2018-12-01T21:57:00.029Z,1.60
2018-12-01T22:00:09.451Z,1.65
2018-12-01T22:03:15.469Z,1.77
2018-12-01T22:06:19.781Z,1.86
2018-12-01T22:09:24.205Z,1.92
2018-12-01T22:12:28.605Z,1.97
2018-12-01T22:15:34.130Z,2.05
2018-12-01T22:18:38.458Z,2.05
2018-12-01T22:21:43.101Z,2.12
2018-12-01T22:24:47.465Z,2.09
2018-12-01T22:27:51.802Z,2.11
2018-12-01T22:30:56.061Z,2.11
2018-12-01T22:34:00.341Z,2.09
2018-12-01T22:37:04.674Z,2.09
2018-12-01T22:40:13.686Z,2.11
2018-12-01T22:43:18.664Z,2.18
2018-12-01T22:46:22.987Z,2.17
2018-12-01T22:49:34.144Z,2.20
2018-12-01T22:52:39.209Z,2.21
2018-12-01T22:55:44.605Z,2.29
2018-12-01T22:58:49.037Z,2.35
2018-12-01T23:01:53.438Z,2.39
2018-12-01T23:04:57.821Z,2.41
2018-12-01T23:08:02.115Z,2.42
2018-12-01T23:11:07.349Z,2.37
2018-12-01T23:14:12.542Z,2.36
2018-12-01T23:17:16.813Z,2.42
2018-12-01T23:20:23.154Z,2.43
2018-12-01T23:23:28.141Z,2.52
2018-12-01T23:26:32.729Z,2.57
2018-12-01T23:29:37.041Z,2.56
2018-12-01T23:32:41.461Z,2.54
2018-12-01T23:35:45.857Z,2.60
2018-12-01T23:38:50.190Z,2.61
2018-12-01T23:41:54.489Z,2.69
2018-12-01T23:44:58.798Z,2.60
2018-12-01T23:48:03.333Z,2.72
2018-12-01T23:51:08.421Z,2.71
2018-12-01T23:54:12.794Z,2.68
2018-12-01T23:57:17.079Z,2.67
